Time;durP1;ratioP1;P1;durP2;ratioP2;P2;SDS_P1;SDS_P2;PMS_P1;PMS_P2;Temp;Humidity;BMP_temperature;BMP_pressure;BME280_temperature;BME280_humidity;BME280_pressure;Samples;Min_cycle;Max_cycle;Signal;HPM_P1;HPM_P2
2022/02/04 00:04:25;;;;;;;2.58;0.30;;;25.90;91.50;;;;;;5053710;28;20043;-74
2022/02/04 00:20:28;;;;;;;1.85;0.32;;;26.80;91.10;;;;;;5058592;28;20076;-75
2022/02/04 00:27:53;;;;;;;4.03;0.77;;;27.40;90.00;;;;;;5052735;28;20108;-73
2022/02/04 00:30:32;;;;;;;1.02;0.20;;;27.70;89.90;;;;;;5056059;28;20070;-75
2022/02/04 00:33:02;;;;;;;3.20;0.50;;;28.00;90.10;;;;;;5067573;28;20039;-75
2022/02/04 00:35:46;;;;;;;4.40;0.50;;;28.30;90.00;;;;;;5072757;28;20046;-74
2022/02/04 00:38:30;;;;;;;2.53;0.30;;;28.40;88.60;;;;;;5067679;28;20037;-73
2022/02/04 00:41:06;;;;;;;3.15;0.40;;;27.70;87.10;;;;;;5058079;28;20036;-74
2022/02/04 00:43:34;;;;;;;3.30;0.20;;;27.50;89.40;;;;;;5067503;28;20032;-74
2022/02/04 01:28:28;;;;;;;7.03;0.80;;;26.50;82.10;;;;;;5064531;28;20104;-74
2022/02/04 01:31:00;;;;;;;4.32;0.55;;;26.50;82.20;;;;;;5066179;28;20033;-75
2022/02/04 01:33:28;;;;;;;1.42;0.15;;;26.10;82.50;;;;;;5059779;28;20049;-74
2022/02/04 01:35:56;;;;;;;2.85;0.35;;;25.70;83.70;;;;;;5053390;28;20063;-76
2022/02/04 01:38:26;;;;;;;2.60;0.68;;;25.50;85.00;;;;;;5070649;28;20070;-75
2022/02/04 01:40:55;;;;;;;5.15;0.55;;;25.50;85.30;;;;;;5063167;28;20043;-76
2022/02/04 01:43:23;;;;;;;1.35;0.52;;;25.40;91.70;;;;;;5068488;28;20115;-73
2022/02/04 01:45:52;;;;;;;5.57;0.63;;;25.10;92.50;;;;;;5060033;28;20044;-74
2022/02/04 01:48:20;;;;;;;5.72;0.75;;;24.70;93.30;;;;;;5066224;28;20039;-74
2022/02/04 01:50:49;;;;;;;3.95;0.60;;;24.70;93.10;;;;;;5054282;28;20463;-74
2022/02/04 01:53:28;;;;;;;7.50;1.10;;;25.00;92.60;;;;;;5071067;28;20029;-74
2022/02/04 01:56:01;;;;;;;4.20;0.77;;;25.60;92.30;;;;;;5058994;28;20075;-74
2022/02/04 01:58:29;;;;;;;3.78;0.85;;;25.70;92.70;;;;;;5055631;28;20061;-75
2022/02/04 02:00:57;;;;;;;5.97;1.77;;;25.60;92.50;;;;;;5054480;28;20108;-76
2022/02/04 02:03:25;;;;;;;7.80;1.42;;;25.60;92.70;;;;;;5070149;28;20089;-77
2022/02/04 02:05:55;;;;;;;6.90;0.60;;;25.40;92.40;;;;;;5066953;28;20025;-74
2022/02/04 02:08:23;;;;;;;3.22;1.10;;;25.30;92.60;;;;;;5056684;28;20033;-74
2022/02/04 02:10:51;;;;;;;3.17;0.63;;;25.30;92.00;;;;;;5052813;28;20116;-75
2022/02/04 02:15:58;;;;;;;2.88;0.30;;;25.10;90.50;;;;;;5063880;28;20037;-75
2022/02/04 02:45:20;;;;;;;5.15;0.70;;;24.10;91.90;;;;;;5058060;28;20039;-77
2022/02/04 02:53:27;;;;;;;3.53;0.70;;;24.20;93.50;;;;;;5067515;28;20045;-77
2022/02/04 02:58:46;;;;;;;2.50;1.08;;;24.10;93.40;;;;;;5054666;28;20110;-77
2022/02/04 03:01:13;;;;;;;5.15;0.98;;;23.90;93.80;;;;;;5051747;28;20066;-76
2022/02/04 03:03:43;;;;;;;4.53;1.27;;;23.90;94.00;;;;;;5056950;28;20114;-76
2022/02/04 03:06:10;;;;;;;9.50;1.00;;;24.00;94.30;;;;;;5066764;28;20017;-76
2022/02/04 03:08:38;;;;;;;6.85;0.77;;;24.30;94.20;;;;;;5064172;28;20475;-76
2022/02/04 03:11:05;;;;;;;5.18;1.10;;;24.50;94.00;;;;;;5068262;28;20029;-76
2022/02/04 03:13:34;;;;;;;4.88;0.90;;;24.70;93.90;;;;;;5059320;28;20132;-77
2022/02/04 03:16:06;;;;;;;4.00;0.85;;;25.20;93.90;;;;;;5050434;28;20045;-77
2022/02/04 03:18:37;;;;;;;6.38;0.88;;;25.90;93.80;;;;;;5054469;28;20036;-77
2022/02/04 03:21:15;;;;;;;5.57;0.98;;;26.70;92.50;;;;;;5057449;28;20110;-78
2022/02/04 03:23:48;;;;;;;7.95;1.63;;;26.80;91.60;;;;;;5069123;28;20106;-75
2022/02/04 03:26:27;;;;;;;3.85;0.80;;;26.60;91.80;;;;;;5065007;28;20091;-77
2022/02/04 03:28:55;;;;;;;3.90;0.50;;;26.30;91.90;;;;;;5048805;28;20040;-75
2022/02/04 03:31:24;;;;;;;5.85;1.98;;;26.00;92.20;;;;;;5061387;28;20040;-77
2022/02/04 03:33:51;;;;;;;4.90;0.65;;;25.80;92.40;;;;;;5051027;28;20479;-79
2022/02/04 03:36:18;;;;;;;1.75;0.43;;;25.30;90.40;;;;;;5053347;28;20049;-78
2022/02/04 03:38:46;;;;;;;3.45;0.80;;;24.70;87.70;;;;;;5064820;28;20039;-78
2022/02/04 03:41:13;;;;;;;4.28;0.90;;;24.40;91.90;;;;;;5057304;28;20049;-76
2022/02/04 03:43:41;;;;;;;5.97;0.50;;;24.30;93.30;;;;;;5055180;28;20118;-78
2022/02/04 03:46:08;;;;;;;5.00;0.88;;;24.50;93.30;;;;;;5064519;28;20055;-79
2022/02/04 03:48:36;;;;;;;7.88;1.23;;;24.80;93.90;;;;;;5058390;28;20385;-77
2022/02/04 03:51:04;;;;;;;4.78;0.60;;;25.20;93.80;;;;;;5061773;28;20358;-74
2022/02/04 03:53:32;;;;;;;4.93;1.17;;;25.60;92.80;;;;;;5064014;28;20092;-74
2022/02/04 03:55:59;;;;;;;5.30;0.60;;;25.90;91.80;;;;;;5050126;28;20041;-74
2022/02/04 03:58:27;;;;;;;5.43;1.48;;;25.70;91.70;;;;;;5063240;28;20493;-75
2022/02/04 04:00:55;;;;;;;5.63;0.50;;;25.40;91.70;;;;;;5068005;28;20046;-73
2022/02/04 04:03:25;;;;;;;9.60;0.80;;;25.00;90.70;;;;;;5057571;28;20029;-74
2022/02/04 04:05:53;;;;;;;4.43;1.27;;;24.80;90.80;;;;;;5056842;28;20029;-73
2022/02/04 04:08:20;;;;;;;2.75;0.30;;;24.80;90.80;;;;;;5068886;28;20025;-75
2022/02/04 04:10:50;;;;;;;5.50;0.90;;;24.80;90.60;;;;;;5059288;28;20131;-75
2022/02/04 04:13:17;;;;;;;4.35;0.60;;;24.80;90.20;;;;;;5052752;28;20087;-75
2022/02/04 04:15:45;;;;;;;2.38;1.05;;;24.80;90.30;;;;;;5058879;28;20024;-75
2022/02/04 04:18:13;;;;;;;3.35;0.45;;;24.80;90.60;;;;;;5063386;28;20057;-74
2022/02/04 04:20:42;;;;;;;6.82;0.65;;;25.10;90.80;;;;;;5065266;28;20025;-75
2022/02/04 04:23:10;;;;;;;2.35;0.70;;;25.70;90.00;;;;;;5065490;28;20139;-75
2022/02/04 04:25:37;;;;;;;2.30;0.45;;;26.00;89.50;;;;;;5067074;28;20025;-74
2022/02/04 04:28:05;;;;;;;4.70;0.40;;;26.50;89.70;;;;;;5057856;28;20025;-74
2022/02/04 04:30:33;;;;;;;4.95;0.47;;;26.60;87.50;;;;;;5055816;28;20037;-75
2022/02/04 04:33:00;;;;;;;3.90;0.50;;;26.00;87.10;;;;;;5056165;28;20028;-73
2022/02/04 04:35:28;;;;;;;4.43;0.52;;;25.30;88.70;;;;;;5058864;28;20131;-73
2022/02/04 04:38:21;;;;;;;6.32;0.68;;;24.80;88.50;;;;;;5052240;28;20047;-73
2022/02/04 04:41:07;;;;;;;0.70;0.55;;;24.60;89.00;;;;;;5058237;28;20032;-75
2022/02/04 04:44:07;;;;;;;5.40;0.70;;;24.50;89.40;;;;;;5067551;28;20082;-73
2022/02/04 05:28:14;;;;;;;3.88;0.80;;;24.20;90.20;;;;;;4996845;28;20040;-74
2022/02/04 05:30:42;;;;;;;4.07;0.60;;;24.30;89.20;;;;;;4988369;28;20058;-74
2022/02/04 05:33:10;;;;;;;2.97;0.63;;;24.40;89.10;;;;;;5038288;28;20436;-73
2022/02/04 05:35:38;;;;;;;4.72;0.40;;;24.40;88.80;;;;;;5057524;28;20052;-75
2022/02/04 05:38:09;;;;;;;3.28;0.40;;;24.40;87.90;;;;;;5052451;28;20020;-72
2022/02/04 05:40:41;;;;;;;3.05;0.50;;;24.20;87.30;;;;;;5055522;28;20029;-74
2022/02/04 05:43:29;;;;;;;6.93;0.82;;;24.00;87.70;;;;;;5060553;28;20064;-74
2022/02/04 05:46:03;;;;;;;3.00;0.40;;;23.90;88.10;;;;;;5064193;28;20112;-73
2022/02/04 05:48:34;;;;;;;5.25;0.47;;;23.90;88.50;;;;;;5070047;28;20751;-74
2022/02/04 05:53:57;;;;;;;2.38;0.52;;;23.80;87.10;;;;;;5060955;28;20021;-75
2022/02/04 05:59:19;;;;;;;3.22;0.60;;;23.70;88.00;;;;;;5059457;28;20028;-75
2022/02/04 06:04:43;;;;;;;5.37;0.77;;;23.80;88.60;;;;;;5069002;28;20453;-75
2022/02/04 06:10:12;;;;;;;5.65;0.90;;;23.80;88.30;;;;;;5057164;28;20384;-74
2022/02/04 06:23:14;;;;;;;;;;;23.70;90.00;;;;;;5053659;28;20044;-74
2022/02/04 06:25:43;;;;;;;3.88;0.65;;;23.60;89.50;;;;;;5066298;28;19966;-75
2022/02/04 06:28:10;;;;;;;3.65;0.40;;;23.70;90.10;;;;;;5050657;28;20027;-75
2022/02/04 06:30:39;;;;;;;4.90;0.55;;;23.90;88.50;;;;;;5057638;28;20040;-75
2022/02/04 06:33:06;;;;;;;3.97;0.65;;;24.30;89.80;;;;;;5057011;28;20026;-76
2022/02/04 06:35:35;;;;;;;1.90;0.50;;;24.70;87.80;;;;;;5057317;28;20082;-75
2022/02/04 06:38:03;;;;;;;2.95;0.70;;;24.70;85.30;;;;;;5052738;28;20460;-76
2022/02/04 06:40:31;;;;;;;5.88;1.13;;;24.50;85.80;;;;;;5050241;28;20058;-77
2022/02/04 06:42:58;;;;;;;2.00;0.98;;;24.50;83.90;;;;;;5050195;28;20488;-75
2022/02/04 06:45:25;;;;;;;2.38;0.75;;;24.60;83.70;;;;;;5047906;28;20021;-75
2022/02/04 06:47:53;;;;;;;5.55;0.75;;;24.50;83.30;;;;;;5050286;28;20052;-74
2022/02/04 06:50:22;;;;;;;4.63;0.43;;;24.60;83.40;;;;;;5051359;28;20122;-75
2022/02/04 06:52:53;;;;;;;5.40;0.50;;;24.50;85.20;;;;;;5065084;28;20074;-77
2022/02/04 06:55:22;;;;;;;3.78;0.98;;;24.70;84.70;;;;;;5066533;28;20044;-76
2022/02/04 06:57:50;;;;;;;3.35;1.00;;;24.70;83.70;;;;;;5063046;28;20083;-76
2022/02/04 07:00:18;;;;;;;9.27;0.70;;;24.70;84.60;;;;;;5060531;28;20032;-75
2022/02/04 07:02:47;;;;;;;5.97;0.65;;;24.70;83.20;;;;;;5050789;28;20039;-73
2022/02/04 07:05:15;;;;;;;3.80;0.55;;;24.70;82.80;;;;;;5053154;28;20060;-75
2022/02/04 07:07:54;;;;;;;4.15;0.65;;;24.70;83.20;;;;;;5060085;28;20032;-74
2022/02/04 07:10:32;;;;;;;5.15;0.35;;;24.70;82.30;;;;;;5048225;28;20372;-75
2022/02/04 07:13:11;;;;;;;2.05;0.77;;;24.70;83.20;;;;;;5064997;28;20021;-75
2022/02/04 07:15:49;;;;;;;6.60;1.17;;;24.70;83.60;;;;;;5068601;28;20028;-74
2022/02/04 07:21:06;;;;;;;4.93;0.63;;;24.90;86.20;;;;;;5067000;28;20031;-73
2022/02/04 07:23:37;;;;;;;5.05;1.00;;;25.00;87.00;;;;;;5068915;28;20032;-74
2022/02/04 07:26:05;;;;;;;6.93;1.10;;;24.90;88.60;;;;;;5063246;28;20028;-75
2022/02/04 07:28:33;;;;;;;4.55;0.60;;;24.80;88.40;;;;;;5059149;28;20025;-75
2022/02/04 07:31:03;;;;;;;5.65;0.70;;;24.60;88.70;;;;;;5051666;28;20083;-74
2022/02/04 07:42:23;;;;;;;5.35;0.98;;;24.10;90.20;;;;;;5066274;28;20289;-74
2022/02/04 07:44:51;;;;;;;5.28;0.50;;;24.00;90.10;;;;;;5065728;28;20029;-75
2022/02/04 07:47:18;;;;;;;3.67;0.55;;;23.90;89.90;;;;;;5050368;28;20139;-75
2022/02/04 07:49:45;;;;;;;5.65;0.75;;;23.90;89.40;;;;;;5060690;28;20029;-75
2022/02/04 07:52:13;;;;;;;4.18;1.70;;;23.70;89.70;;;;;;5053113;28;20021;-74
2022/02/04 07:54:40;;;;;;;8.15;0.95;;;23.50;90.30;;;;;;5073870;28;20020;-75
2022/02/04 07:57:08;;;;;;;4.15;0.70;;;23.40;90.70;;;;;;5073748;28;20486;-75
2022/02/04 07:59:35;;;;;;;7.70;0.85;;;23.30;90.80;;;;;;5062194;28;20506;-74
2022/02/04 08:02:03;;;;;;;3.47;0.57;;;23.20;90.90;;;;;;5063761;28;20087;-76
2022/02/04 08:04:33;;;;;;;4.80;0.60;;;23.10;90.50;;;;;;5053545;28;20483;-75
2022/02/04 08:07:05;;;;;;;4.72;0.50;;;23.00;90.70;;;;;;5060051;28;20066;-75
2022/02/04 08:10:05;;;;;;;5.43;1.25;;;23.00;90.70;;;;;;5063721;28;20059;-75
2022/02/04 08:12:38;;;;;;;4.30;1.17;;;22.90;90.80;;;;;;5052551;28;20037;-76
2022/02/04 08:27:04;;;;;;;8.45;2.65;;;22.20;91.00;;;;;;5055223;28;20028;-75
2022/02/04 08:48:54;;;;;;;8.82;0.82;;;21.70;91.30;;;;;;5066208;28;20038;-75
2022/02/04 08:54:10;;;;;;;1.10;0.80;;;21.50;91.10;;;;;;5055240;28;20044;-76
2022/02/04 08:59:20;;;;;;;6.75;1.00;;;21.40;90.90;;;;;;5071352;28;20028;-75
2022/02/04 09:02:05;;;;;;;3.95;0.52;;;21.40;90.80;;;;;;5058983;28;20032;-75
2022/02/04 09:04:39;;;;;;;3.33;0.50;;;21.40;90.60;;;;;;5061879;28;20024;-74
2022/02/04 09:07:10;;;;;;;3.72;0.85;;;21.40;90.60;;;;;;5061914;28;20029;-76
2022/02/04 09:20:31;;;;;;;1.05;0.40;;;21.20;90.20;;;;;;5068776;28;20403;-75
2022/02/04 09:22:59;;;;;;;2.63;0.50;;;21.20;90.20;;;;;;5054844;28;20221;-75
2022/02/04 09:25:27;;;;;;;4.70;0.32;;;21.20;90.20;;;;;;5062006;28;20032;-74
2022/02/04 09:27:55;;;;;;;3.95;0.55;;;21.10;90.30;;;;;;5049669;28;20044;-75
2022/02/04 09:30:24;;;;;;;3.63;0.40;;;21.10;90.30;;;;;;5056576;28;20444;-75
2022/02/04 09:32:52;;;;;;;4.80;0.70;;;21.00;90.20;;;;;;5049902;28;20033;-74
2022/02/04 09:35:22;;;;;;;4.65;1.02;;;21.00;90.40;;;;;;5054247;28;20483;-74
2022/02/04 09:37:51;;;;;;;2.42;0.88;;;20.80;90.50;;;;;;5050836;28;20047;-74
2022/02/04 09:40:19;;;;;;;2.95;0.82;;;20.80;90.60;;;;;;5052515;28;20150;-76
2022/02/04 09:42:48;;;;;;;3.58;0.82;;;20.70;90.50;;;;;;5050620;28;20544;-74
2022/02/04 09:45:19;;;;;;;7.90;0.70;;;20.60;90.60;;;;;;5055447;28;20435;-73
2022/02/04 09:47:56;;;;;;;3.60;0.40;;;20.60;90.60;;;;;;5063458;28;20044;-72
2022/02/04 09:50:25;;;;;;;2.35;0.50;;;20.50;90.80;;;;;;5058356;28;20017;-74
2022/02/04 10:18:32;;;;;;;2.17;0.52;;;20.20;92.00;;;;;;5068521;28;20023;-74
2022/02/04 10:21:11;;;;;;;3.88;1.02;;;20.30;91.90;;;;;;5056147;28;20048;-75
2022/02/04 10:23:59;;;;;;;4.68;0.55;;;20.40;91.80;;;;;;5069156;28;20040;-74
2022/02/04 10:26:27;;;;;;;1.08;0.28;;;20.40;91.50;;;;;;5054731;28;20032;-73
2022/02/04 10:28:55;;;;;;;2.78;0.98;;;20.40;91.60;;;;;;5056848;28;20025;-74
2022/02/04 10:31:29;;;;;;;2.47;0.28;;;20.40;92.10;;;;;;5069065;28;20028;-73
2022/02/04 10:34:03;;;;;;;3.95;0.73;;;20.30;92.60;;;;;;5066005;28;20124;-73
2022/02/04 10:36:36;;;;;;;2.05;0.30;;;20.30;93.20;;;;;;5050651;28;20037;-74
2022/02/04 10:42:45;;;;;;;1.70;0.68;;;20.10;93.50;;;;;;5068215;28;20567;-74
2022/02/04 10:52:36;;;;;;;3.65;0.52;;;20.00;94.10;;;;;;5053630;28;20234;-75
2022/02/04 11:00:20;;;;;;;4.50;0.50;;;19.80;95.20;;;;;;5068469;28;20021;-75
2022/02/04 11:05:26;;;;;;;3.13;0.52;;;19.80;96.10;;;;;;5070023;28;20059;-76
2022/02/04 11:22:10;;;;;;;4.32;0.65;;;19.40;98.30;;;;;;5054750;28;20502;-74
2022/02/04 11:48:29;;;;;;;2.92;0.47;;;19.10;99.60;;;;;;5047985;28;20052;-72
2022/02/04 11:51:16;;;;;;;1.48;0.55;;;19.00;99.60;;;;;;5056912;28;20170;-73
2022/02/04 11:54:29;;;;;;;3.22;0.30;;;19.00;99.80;;;;;;5054089;28;20039;-73
2022/02/04 11:56:58;;;;;;;1.73;0.32;;;18.90;99.90;;;;;;5053293;28;20043;-74
2022/02/04 11:59:43;;;;;;;4.70;0.40;;;18.80;99.90;;;;;;5058929;28;20029;-75
2022/02/04 12:02:29;;;;;;;2.67;0.85;;;18.80;99.90;;;;;;5055446;28;20036;-73
2022/02/04 12:05:07;;;;;;;;;;;18.80;99.90;;;;;;5053053;28;20029;-72
2022/02/04 12:07:45;;;;;;;7.38;0.80;;;18.90;99.80;;;;;;5051542;28;19935;-74
2022/02/04 12:10:34;;;;;;;1.20;0.30;;;18.90;99.70;;;;;;5050341;28;20056;-73
2022/02/04 12:13:09;;;;;;;1.10;0.52;;;18.80;99.80;;;;;;5057209;28;20068;-74
2022/02/04 12:16:07;;;;;;;3.53;0.40;;;18.80;99.80;;;;;;5066292;28;20037;-74
2022/02/04 12:18:40;;;;;;;1.35;0.68;;;18.70;99.90;;;;;;5044399;28;20492;-74
2022/02/04 12:21:07;;;;;;;6.15;0.88;;;18.70;99.90;;;;;;5054934;28;20372;-72
2022/02/04 12:23:48;;;;;;;2.30;0.40;;;18.60;99.90;;;;;;5063055;28;20023;-76
2022/02/04 12:26:33;;;;;;;4.65;0.63;;;18.60;99.90;;;;;;5049309;28;20647;-74
2022/02/04 12:29:07;;;;;;;4.43;0.55;;;18.50;99.90;;;;;;5056473;28;20021;-73
2022/02/04 12:31:39;;;;;;;2.55;0.55;;;18.50;99.90;;;;;;5061952;28;20499;-72
2022/02/04 12:34:11;;;;;;;3.40;0.63;;;18.50;99.90;;;;;;5059682;28;20028;-73
2022/02/04 12:36:45;;;;;;;0.95;0.30;;;18.60;99.90;;;;;;5058028;28;20546;-73
2022/02/04 12:39:14;;;;;;;4.72;1.00;;;18.50;99.90;;;;;;5063153;28;20024;-74
2022/02/04 12:41:48;;;;;;;1.30;0.70;;;18.60;99.90;;;;;;5065505;28;20037;-75
2022/02/04 12:44:21;;;;;;;1.98;0.32;;;18.60;99.90;;;;;;5062509;28;20383;-74
2022/02/04 12:46:54;;;;;;;4.78;0.93;;;18.60;99.90;;;;;;5057364;28;20070;-74
2022/02/04 12:49:26;;;;;;;0.80;0.20;;;18.60;99.90;;;;;;5055423;28;20032;-75
2022/02/04 12:54:41;;;;;;;3.25;0.52;;;18.60;99.90;;;;;;5059369;28;20033;-74
2022/02/04 13:00:08;;;;;;;3.17;0.30;;;18.70;99.90;;;;;;5055286;28;20027;-74
2022/02/04 13:02:55;;;;;;;3.92;1.10;;;18.60;99.90;;;;;;5055880;28;20033;-73
2022/02/04 13:08:25;;;;;;;6.05;0.40;;;18.60;99.90;;;;;;5055633;28;20944;-74
2022/02/04 13:11:07;;;;;;;4.07;0.52;;;18.60;99.90;;;;;;5059081;28;20456;-73
2022/02/04 13:13:55;;;;;;;5.53;0.50;;;18.50;99.90;;;;;;5056878;28;20083;-73
2022/02/04 13:16:23;;;;;;;1.42;0.45;;;18.50;99.90;;;;;;5057066;28;20332;-73
2022/02/04 13:18:52;;;;;;;3.45;0.30;;;18.50;99.90;;;;;;5056120;28;20031;-73
2022/02/04 13:21:20;;;;;;;5.22;1.05;;;18.50;99.90;;;;;;5067960;28;20032;-73
2022/02/04 13:23:48;;;;;;;2.20;0.20;;;18.50;99.90;;;;;;5068065;28;20523;-75
2022/02/04 13:26:15;;;;;;;5.30;0.32;;;18.50;99.90;;;;;;5059805;28;20348;-75
2022/02/04 13:28:44;;;;;;;2.25;0.80;;;18.40;99.90;;;;;;5065973;28;20036;-75
2022/02/04 13:31:22;;;;;;;2.55;0.50;;;18.40;99.90;;;;;;5065141;28;20029;-75
2022/02/04 13:33:53;;;;;;;3.80;0.32;;;18.20;99.90;;;;;;5057213;28;20104;-75
2022/02/04 13:50:19;;;;;;;2.60;0.40;;;17.80;99.90;;;;;;5059197;28;20429;-74
2022/02/04 13:58:26;;;;;;;4.57;0.63;;;17.60;99.90;;;;;;5069421;28;20028;-75
2022/02/04 14:03:30;;;;;;;5.05;0.30;;;17.60;99.90;;;;;;5068191;28;20452;-75
2022/02/04 14:06:25;;;;;;;2.58;0.32;;;17.50;99.90;;;;;;5052183;28;20371;-75
2022/02/04 14:08:56;;;;;;;4.07;1.10;;;17.50;99.90;;;;;;5066397;28;20064;-75
2022/02/04 14:11:37;;;;;;;1.48;0.40;;;17.50;99.90;;;;;;5071465;28;20505;-75
2022/02/04 14:14:26;;;;;;;1.42;0.40;;;17.40;99.90;;;;;;5058132;28;20033;-75
2022/02/04 14:17:04;;;;;;;2.33;0.68;;;17.40;99.90;;;;;;5057219;28;20063;-75
2022/02/04 14:19:31;;;;;;;1.95;0.20;;;17.30;99.90;;;;;;5059055;28;20032;-75
2022/02/04 14:21:59;;;;;;;0.43;0.20;;;17.30;99.90;;;;;;5069713;28;20040;-75
2022/02/04 14:24:28;;;;;;;1.38;0.35;;;17.30;99.90;;;;;;5067457;28;20456;-75
2022/02/04 14:26:57;;;;;;;1.60;0.47;;;17.30;99.90;;;;;;5051181;28;20060;-75
2022/02/04 14:29:31;;;;;;;2.47;0.30;;;17.20;99.90;;;;;;5059901;28;20115;-76
2022/02/04 14:53:58;;;;;;;3.03;0.40;;;17.00;99.90;;;;;;5065502;28;20104;-76
2022/02/04 15:06:36;;;;;;;4.38;0.43;;;16.90;99.90;;;;;;5059003;28;20602;-75
2022/02/04 15:09:07;;;;;;;2.05;0.40;;;16.90;99.90;;;;;;5062365;28;20024;-74
2022/02/04 15:14:57;;;;;;;2.90;0.30;;;16.80;99.90;;;;;;5050774;28;20094;-75
2022/02/04 15:17:24;;;;;;;5.45;0.50;;;16.80;99.90;;;;;;5050229;28;20021;-76
2022/02/04 15:19:54;;;;;;;4.05;0.40;;;16.70;99.90;;;;;;5067613;28;20063;-76
2022/02/04 15:22:25;;;;;;;1.30;0.30;;;16.70;99.90;;;;;;5064523;28;20158;-74
2022/02/04 15:24:57;;;;;;;5.53;0.50;;;16.70;99.90;;;;;;5062212;28;20024;-75
2022/02/04 15:27:26;;;;;;;3.80;0.60;;;16.70;99.90;;;;;;5057646;28;20082;-72
2022/02/04 15:29:54;;;;;;;2.78;0.43;;;16.70;99.90;;;;;;5069434;28;20029;-75
2022/02/04 15:32:22;;;;;;;2.42;0.40;;;16.80;99.90;;;;;;5063788;28;20036;-74
2022/02/04 15:34:51;;;;;;;2.05;0.40;;;16.80;99.90;;;;;;5060606;28;20037;-74
2022/02/04 15:37:19;;;;;;;9.38;0.70;;;16.80;99.90;;;;;;5063495;28;20068;-76
2022/02/04 15:39:46;;;;;;;4.10;0.75;;;16.90;99.90;;;;;;5061350;28;20025;-76
2022/02/04 15:42:15;;;;;;;5.20;0.60;;;16.90;99.90;;;;;;5063879;28;20052;-74
2022/02/04 15:44:59;;;;;;;2.15;0.30;;;17.00;99.90;;;;;;5054640;28;20379;-74
2022/02/04 15:48:19;;;;;;;4.47;0.55;;;17.10;99.90;;;;;;5052897;28;20396;-74
2022/02/04 16:03:42;;;;;;;2.30;0.50;;;17.60;99.90;;;;;;5063204;28;20023;-73
2022/02/04 16:06:14;;;;;;;4.35;0.45;;;17.60;99.90;;;;;;5062767;28;20434;-73
2022/02/04 16:08:41;;;;;;;3.03;1.02;;;17.50;99.90;;;;;;5062035;28;20053;-75
2022/02/04 16:14:08;;;;;;;5.90;1.03;;;17.40;99.90;;;;;;5064046;28;20035;-73
2022/02/04 16:16:41;;;;;;;3.33;1.25;;;17.40;99.90;;;;;;5065582;28;20046;-74
2022/02/04 16:19:27;;;;;;;3.40;0.63;;;17.30;99.90;;;;;;5067370;28;20483;-75
2022/02/04 16:25:14;;;;;;;2.72;0.30;;;17.30;99.90;;;;;;5070363;28;20483;-73
2022/02/04 16:29:50;;;;;;;5.82;0.65;;;17.20;99.90;;;;;;5071350;28;20035;-74
2022/02/04 16:32:18;;;;;;;5.55;0.52;;;17.20;99.90;;;;;;5065117;28;20051;-74
2022/02/04 16:34:52;;;;;;;3.63;0.77;;;17.10;99.90;;;;;;5062574;28;20143;-74
2022/02/04 16:37:33;;;;;;;5.60;1.65;;;17.20;99.90;;;;;;5057347;28;20107;-73
2022/02/04 16:40:04;;;;;;;1.02;0.40;;;17.20;99.90;;;;;;5066002;28;20483;-74
2022/02/04 16:42:33;;;;;;;2.55;0.50;;;17.20;99.90;;;;;;5071628;28;20057;-74
2022/02/04 16:45:00;;;;;;;2.65;0.57;;;17.30;99.90;;;;;;5068082;28;20023;-74
2022/02/04 16:47:28;;;;;;;5.30;0.50;;;17.20;99.90;;;;;;5071613;28;20028;-74
2022/02/04 16:49:57;;;;;;;4.78;0.30;;;17.30;99.90;;;;;;5070343;28;20118;-74
2022/02/04 16:52:24;;;;;;;4.57;0.40;;;17.20;99.90;;;;;;5070089;28;20037;-74
2022/02/04 16:54:51;;;;;;;2.03;0.47;;;17.20;99.90;;;;;;5068278;28;20044;-74
2022/02/04 16:57:19;;;;;;;2.25;0.30;;;17.30;99.90;;;;;;5070858;28;20375;-74
2022/02/04 16:59:46;;;;;;;2.22;0.43;;;17.30;99.90;;;;;;5076377;28;20110;-73
2022/02/04 17:02:14;;;;;;;1.13;0.30;;;17.40;99.90;;;;;;5071087;28;20013;-73
2022/02/04 17:04:41;;;;;;;2.55;0.57;;;17.40;99.90;;;;;;5064332;28;20032;-74
2022/02/04 17:07:17;;;;;;;4.53;0.75;;;17.30;99.90;;;;;;5058423;28;20073;-74
2022/02/04 17:09:48;;;;;;;6.82;0.50;;;17.40;99.90;;;;;;5072256;28;20509;-73
2022/02/04 17:12:26;;;;;;;3.47;0.40;;;17.40;99.90;;;;;;5072621;28;20016;-73
2022/02/04 17:14:55;;;;;;;1.23;0.32;;;17.30;99.90;;;;;;5054671;28;20033;-74
2022/02/04 17:17:24;;;;;;;3.30;0.50;;;17.30;99.90;;;;;;5052807;28;20468;-73
2022/02/04 17:20:14;;;;;;;3.03;0.50;;;17.30;99.90;;;;;;5063384;28;20037;-74
2022/02/04 17:22:42;;;;;;;4.70;0.50;;;17.30;99.90;;;;;;5071200;28;20036;-74
2022/02/04 17:25:12;;;;;;;3.30;0.45;;;17.30;99.90;;;;;;5070784;28;20111;-74
2022/02/04 17:27:43;;;;;;;4.47;0.52;;;17.30;99.90;;;;;;5055729;28;20028;-74
2022/02/04 17:30:14;;;;;;;4.07;0.57;;;17.30;99.90;;;;;;5066678;28;20028;-74
2022/02/04 17:32:42;;;;;;;2.58;0.40;;;17.40;99.90;;;;;;5068140;28;20029;-74
2022/02/04 17:35:11;;;;;;;1.33;0.68;;;17.40;99.90;;;;;;5065513;28;20037;-74
2022/02/04 17:37:39;;;;;;;6.13;1.15;;;17.40;99.90;;;;;;5070866;28;20068;-74
2022/02/04 17:40:08;;;;;;;5.15;1.45;;;17.40;99.90;;;;;;5066828;28;20107;-74
2022/02/04 17:42:39;;;;;;;7.75;0.52;;;17.40;99.90;;;;;;5063413;28;20044;-73
2022/02/04 17:45:09;;;;;;;2.65;0.55;;;17.30;99.90;;;;;;5065990;28;21182;-74
2022/02/04 17:47:38;;;;;;;2.45;0.90;;;17.30;99.90;;;;;;5071236;28;20033;-74
2022/02/04 17:50:18;;;;;;;1.75;0.45;;;17.30;99.90;;;;;;5066908;28;20036;-74
2022/02/04 17:52:51;;;;;;;4.50;0.52;;;17.30;99.90;;;;;;5061556;28;20025;-74
2022/02/04 17:55:27;;;;;;;4.55;0.65;;;17.30;99.90;;;;;;5052818;28;20084;-73
2022/02/04 17:58:13;;;;;;;3.03;0.55;;;17.30;99.90;;;;;;5066277;28;20064;-74
2022/02/04 18:01:11;;;;;;;2.78;0.40;;;17.20;99.90;;;;;;5071529;28;20497;-74
2022/02/04 18:06:56;;;;;;;0.75;0.35;;;17.20;99.90;;;;;;5071109;28;20028;-74
2022/02/04 18:09:00;;;;;;;2.50;0.93;;;17.20;99.90;;;;;;5057520;28;20090;-74
2022/02/04 18:11:27;;;;;;;2.42;1.65;;;17.10;99.90;;;;;;5070310;28;20034;-74
2022/02/04 18:13:55;;;;;;;7.57;0.63;;;17.10;99.90;;;;;;5068197;28;20092;-74
2022/02/04 18:16:22;;;;;;;1.95;0.50;;;17.10;99.90;;;;;;5071342;28;20036;-74
2022/02/04 18:18:49;;;;;;;2.17;0.30;;;17.10;99.90;;;;;;5067699;28;20035;-74
2022/02/04 18:21:18;;;;;;;3.03;0.40;;;17.10;99.90;;;;;;5060182;28;20094;-74
2022/02/04 18:23:45;;;;;;;3.17;0.90;;;17.00;99.90;;;;;;5065919;28;20114;-74
2022/02/04 18:26:14;;;;;;;4.38;0.50;;;17.00;99.90;;;;;;5051378;28;20060;-74
2022/02/04 18:28:41;;;;;;;4.45;1.20;;;17.00;99.90;;;;;;5054532;28;20024;-74
2022/02/04 18:31:09;;;;;;;6.55;0.57;;;17.00;99.90;;;;;;5064783;28;20056;-74
2022/02/04 18:33:37;;;;;;;0.82;0.30;;;16.90;99.90;;;;;;5055452;28;20017;-74
2022/02/04 18:36:04;;;;;;;3.30;0.98;;;16.80;99.90;;;;;;5069588;28;20340;-74
2022/02/04 18:38:38;;;;;;;1.67;0.50;;;16.80;99.90;;;;;;5057150;28;20020;-74
2022/02/04 18:41:32;;;;;;;3.70;0.43;;;16.80;99.90;;;;;;5063239;28;20076;-74
2022/02/04 18:44:05;;;;;;;3.42;1.05;;;16.80;99.90;;;;;;5054143;28;20036;-74
2022/02/04 18:54:56;;;;;;;3.55;0.60;;;16.80;99.90;;;;;;5059006;28;20049;-75
2022/02/04 18:57:24;;;;;;;0.80;0.38;;;16.80;99.90;;;;;;5065153;28;20070;-74
2022/02/04 18:59:57;;;;;;;3.33;0.68;;;16.80;99.90;;;;;;5056987;28;20106;-74
2022/02/04 19:02:26;;;;;;;5.15;0.50;;;16.70;99.90;;;;;;5065344;28;20047;-74
2022/02/04 19:05:03;;;;;;;1.45;0.50;;;16.70;99.90;;;;;;5061237;28;20040;-74
2022/02/04 19:07:40;;;;;;;4.72;0.90;;;16.60;99.90;;;;;;5060837;28;20096;-74
2022/02/04 19:10:08;;;;;;;3.03;0.95;;;16.60;99.90;;;;;;5067498;28;20073;-74
2022/02/04 19:12:47;;;;;;;1.95;0.35;;;16.50;99.90;;;;;;5069800;28;20355;-74
2022/02/04 19:17:50;;;;;;;1.48;0.10;;;16.50;99.90;;;;;;5050920;28;20172;-73
2022/02/04 19:20:31;;;;;;;3.65;0.50;;;16.40;99.90;;;;;;5065085;28;20032;-73
2022/02/04 19:23:03;;;;;;;3.60;0.60;;;16.40;99.90;;;;;;5063845;28;20090;-73
2022/02/04 19:25:35;;;;;;;1.15;0.50;;;16.30;99.90;;;;;;5058237;28;20040;-74
2022/02/04 19:28:03;;;;;;;4.68;0.47;;;16.30;99.90;;;;;;5050442;28;20037;-74
2022/02/04 19:30:32;;;;;;;14.32;1.45;;;16.30;99.90;;;;;;5067961;28;20134;-73
2022/02/04 19:33:00;;;;;;;5.20;0.70;;;16.30;99.90;;;;;;5050200;28;20503;-74
2022/02/04 19:35:27;;;;;;;1.95;0.30;;;16.30;99.90;;;;;;5063218;28;20546;-73
2022/02/04 19:37:56;;;;;;;3.00;0.60;;;16.30;99.90;;;;;;5063396;28;20089;-73
2022/02/04 19:40:23;;;;;;;1.92;0.77;;;16.30;99.90;;;;;;5058933;28;20479;-73
2022/02/04 19:42:51;;;;;;;1.75;0.38;;;16.20;99.90;;;;;;5054015;28;20047;-74
2022/02/04 19:45:25;;;;;;;2.10;0.40;;;16.20;99.90;;;;;;5070136;28;20111;-73
2022/02/04 19:48:02;;;;;;;3.22;0.93;;;16.20;99.90;;;;;;5069071;28;20025;-73
2022/02/04 19:50:49;;;;;;;2.45;0.40;;;16.30;99.90;;;;;;5071581;28;20459;-73
2022/02/04 19:54:00;;;;;;;3.30;0.60;;;16.30;99.90;;;;;;5060541;28;20345;-73
2022/02/04 20:13:37;;;;;;;2.40;1.25;;;16.50;99.90;;;;;;5054998;28;20391;-74
2022/02/04 20:23:37;;;;;;;2.13;0.50;;;16.70;99.90;;;;;;5067607;28;20068;-74
2022/02/04 20:26:06;;;;;;;1.15;0.52;;;16.80;99.90;;;;;;5072851;28;20069;-74